<?xml version="1.0" encoding="UTF-8" standalone="no" ?>
<gpx xmlns="http://www.topografix.com/GPX/1/1" xmlns:xsi="http://www.w3.org/2001/XMLSchema-instance" xsi:schemaLocation="http://www.topografix.com/GPX/1/1 http://www.topografix.com/GPX/1/1/gpx.xsd" version="1.1" creator="VisuGPX - https://www.visugpx.com">
  <metadata>
    <name>Mont Pepoiri </name>
    <desc><![CDATA[Mont pepoiri ]]></desc>
  </metadata>
  <wpt lat="44.104" lon="7.18823">
    <ele>2181.839844</ele>
    <name><![CDATA[col de veillos ]]></name>
    <desc><![CDATA[]]></desc>
  </wpt>
  <wpt lat="44.11707" lon="7.20112">
    <ele>2445.009277</ele>
    <name><![CDATA[col du barn]]></name>
    <desc><![CDATA[]]></desc>
  </wpt>
  <wpt lat="44.11377" lon="7.20327">
    <ele>2562.412598</ele>
    <name><![CDATA[balise 77]]></name>
    <desc><![CDATA[]]></desc>
  </wpt>
  <wpt lat="44.11053" lon="7.20218">
    <ele>2639.276611</ele>
    <name><![CDATA[Maps3D_wp2]]></name>
    <desc><![CDATA[]]></desc>
  </wpt>
  <wpt lat="44.09875" lon="7.18707">
    <ele>2040.224854</ele>
    <name><![CDATA[Maps3D_wp3]]></name>
    <desc><![CDATA[ ]]></desc>
  </wpt>
  <trk>
    <name><![CDATA[Mont Pepoiri ]]></name>
    <trkseg>
      <trkpt lat="44.09869" lon="7.18653">
        <ele>2044.451782</ele>
        <time>2020-09-04T08:31:28Z</time>
      </trkpt>
      <trkpt lat="44.09885" lon="7.18667">
        <ele>2044.818726</ele>
        <time>2020-09-04T08:31:43Z</time>
      </trkpt>
      <trkpt lat="44.09902" lon="7.18679">
        <ele>2047.79248</ele>
        <time>2020-09-04T08:31:59Z</time>
      </trkpt>
      <trkpt lat="44.09921" lon="7.18688">
        <ele>2051.048584</ele>
        <time>2020-09-04T08:32:15Z</time>
      </trkpt>
      <trkpt lat="44.09937" lon="7.18697">
        <ele>2053.395508</ele>
        <time>2020-09-04T08:32:30Z</time>
      </trkpt>
      <trkpt lat="44.09954" lon="7.18712">
        <ele>2055.319092</ele>
        <time>2020-09-04T08:32:46Z</time>
      </trkpt>
      <trkpt lat="44.09971" lon="7.18716">
        <ele>2058.283691</ele>
        <time>2020-09-04T08:33:02Z</time>
      </trkpt>
      <trkpt lat="44.09989" lon="7.18723">
        <ele>2060.746338</ele>
        <time>2020-09-04T08:33:18Z</time>
      </trkpt>
      <trkpt lat="44.10004" lon="7.18731">
        <ele>2063.309082</ele>
        <time>2020-09-04T08:33:33Z</time>
      </trkpt>
      <trkpt lat="44.10019" lon="7.18737">
        <ele>2067.780029</ele>
        <time>2020-09-04T08:33:49Z</time>
      </trkpt>
      <trkpt lat="44.1003" lon="7.18752">
        <ele>2069.874756</ele>
        <time>2020-09-04T08:34:05Z</time>
      </trkpt>
      <trkpt lat="44.10039" lon="7.18768">
        <ele>2073.217285</ele>
        <time>2020-09-04T08:34:23Z</time>
      </trkpt>
      <trkpt lat="44.1005" lon="7.18782">
        <ele>2076.411133</ele>
        <time>2020-09-04T08:34:39Z</time>
      </trkpt>
      <trkpt lat="44.10063" lon="7.18788">
        <ele>2079.622314</ele>
        <time>2020-09-04T08:34:58Z</time>
      </trkpt>
      <trkpt lat="44.10078" lon="7.18794">
        <ele>2083.08667</ele>
        <time>2020-09-04T08:35:14Z</time>
      </trkpt>
      <trkpt lat="44.10091" lon="7.18801">
        <ele>2087.021484</ele>
        <time>2020-09-04T08:35:30Z</time>
      </trkpt>
      <trkpt lat="44.10104" lon="7.18809">
        <ele>2091.837402</ele>
        <time>2020-09-04T08:35:45Z</time>
      </trkpt>
      <trkpt lat="44.10116" lon="7.18817">
        <ele>2096.171387</ele>
        <time>2020-09-04T08:36:04Z</time>
      </trkpt>
      <trkpt lat="44.10125" lon="7.18832">
        <ele>2098.416748</ele>
        <time>2020-09-04T08:36:24Z</time>
      </trkpt>
      <trkpt lat="44.10133" lon="7.18847">
        <ele>2102.004883</ele>
        <time>2020-09-04T08:36:45Z</time>
      </trkpt>
      <trkpt lat="44.10142" lon="7.18862">
        <ele>2105.23584</ele>
        <time>2020-09-04T08:37:05Z</time>
      </trkpt>
      <trkpt lat="44.10153" lon="7.18875">
        <ele>2109.010254</ele>
        <time>2020-09-04T08:37:20Z</time>
      </trkpt>
      <trkpt lat="44.10162" lon="7.18889">
        <ele>2111.595459</ele>
        <time>2020-09-04T08:37:37Z</time>
      </trkpt>
      <trkpt lat="44.10172" lon="7.18905">
        <ele>2114.226807</ele>
        <time>2020-09-04T08:37:53Z</time>
      </trkpt>
      <trkpt lat="44.1018" lon="7.18922">
        <ele>2116.57251</ele>
        <time>2020-09-04T08:38:08Z</time>
      </trkpt>
      <trkpt lat="44.10193" lon="7.18928">
        <ele>2120.542236</ele>
        <time>2020-09-04T08:38:26Z</time>
      </trkpt>
      <trkpt lat="44.10208" lon="7.18927">
        <ele>2124.912842</ele>
        <time>2020-09-04T08:38:42Z</time>
      </trkpt>
      <trkpt lat="44.10224" lon="7.18931">
        <ele>2129.34082</ele>
        <time>2020-09-04T08:39:09Z</time>
      </trkpt>
      <trkpt lat="44.10238" lon="7.18928">
        <ele>2133.638184</ele>
        <time>2020-09-04T08:39:36Z</time>
      </trkpt>
      <trkpt lat="44.10252" lon="7.1893">
        <ele>2137.447754</ele>
        <time>2020-09-04T08:40:02Z</time>
      </trkpt>
      <trkpt lat="44.10265" lon="7.18937">
        <ele>2140.335205</ele>
        <time>2020-09-04T08:40:22Z</time>
      </trkpt>
      <trkpt lat="44.10263" lon="7.18918">
        <ele>2142.583008</ele>
        <time>2020-09-04T08:40:57Z</time>
      </trkpt>
      <trkpt lat="44.10274" lon="7.18929">
        <ele>2144.39917</ele>
        <time>2020-09-04T08:41:13Z</time>
      </trkpt>
      <trkpt lat="44.1027" lon="7.1891">
        <ele>2147.234375</ele>
        <time>2020-09-04T08:41:33Z</time>
      </trkpt>
      <trkpt lat="44.10266" lon="7.18892">
        <ele>2152.241943</ele>
        <time>2020-09-04T08:41:50Z</time>
      </trkpt>
      <trkpt lat="44.10279" lon="7.18899">
        <ele>2153.660156</ele>
        <time>2020-09-04T08:42:22Z</time>
      </trkpt>
      <trkpt lat="44.10292" lon="7.18906">
        <ele>2155.416504</ele>
        <time>2020-09-04T08:42:42Z</time>
      </trkpt>
      <trkpt lat="44.10306" lon="7.18909">
        <ele>2158.552734</ele>
        <time>2020-09-04T08:42:58Z</time>
      </trkpt>
      <trkpt lat="44.10317" lon="7.18897">
        <ele>2165.542969</ele>
        <time>2020-09-04T08:43:17Z</time>
      </trkpt>
      <trkpt lat="44.10331" lon="7.18896">
        <ele>2169.966064</ele>
        <time>2020-09-04T08:43:33Z</time>
      </trkpt>
      <trkpt lat="44.10342" lon="7.18884">
        <ele>2176.464111</ele>
        <time>2020-09-04T08:44:43Z</time>
      </trkpt>
      <trkpt lat="44.10354" lon="7.18893">
        <ele>2177.564941</ele>
        <time>2020-09-04T08:45:05Z</time>
      </trkpt>
      <trkpt lat="44.10368" lon="7.18895">
        <ele>2181.231445</ele>
        <time>2020-09-04T08:45:21Z</time>
      </trkpt>
      <trkpt lat="44.1037" lon="7.18875">
        <ele>2183.638672</ele>
        <time>2020-09-04T08:46:07Z</time>
      </trkpt>
      <trkpt lat="44.10362" lon="7.18859">
        <ele>2184.572998</ele>
        <time>2020-09-04T08:46:26Z</time>
      </trkpt>
      <trkpt lat="44.10352" lon="7.18845">
        <ele>2186.898926</ele>
        <time>2020-09-04T08:46:45Z</time>
      </trkpt>
      <trkpt lat="44.10366" lon="7.18839">
        <ele>2187.27832</ele>
        <time>2020-09-04T08:47:25Z</time>
      </trkpt>
      <trkpt lat="44.10379" lon="7.18831">
        <ele>2186.272461</ele>
        <time>2020-09-04T08:48:00Z</time>
      </trkpt>
      <trkpt lat="44.10392" lon="7.18824">
        <ele>2183.174805</ele>
        <time>2020-09-04T08:48:45Z</time>
      </trkpt>
      <trkpt lat="44.10406" lon="7.18823">
        <ele>2180.987549</ele>
        <time>2020-09-04T08:56:28Z</time>
      </trkpt>
      <trkpt lat="44.10416" lon="7.18839">
        <ele>2184.13623</ele>
        <time>2020-09-04T08:56:43Z</time>
      </trkpt>
      <trkpt lat="44.10425" lon="7.18853">
        <ele>2185.357178</ele>
        <time>2020-09-04T08:57:01Z</time>
      </trkpt>
      <trkpt lat="44.10432" lon="7.18875">
        <ele>2188.973633</ele>
        <time>2020-09-04T08:57:17Z</time>
      </trkpt>
      <trkpt lat="44.10445" lon="7.18883">
        <ele>2189.071533</ele>
        <time>2020-09-04T08:57:44Z</time>
      </trkpt>
      <trkpt lat="44.10456" lon="7.18894">
        <ele>2190.697998</ele>
        <time>2020-09-04T08:58:03Z</time>
      </trkpt>
      <trkpt lat="44.10463" lon="7.18911">
        <ele>2194.473633</ele>
        <time>2020-09-04T08:58:24Z</time>
      </trkpt>
      <trkpt lat="44.10469" lon="7.18928">
        <ele>2198.556396</ele>
        <time>2020-09-04T08:58:46Z</time>
      </trkpt>
      <trkpt lat="44.10477" lon="7.18944">
        <ele>2203.036865</ele>
        <time>2020-09-04T08:59:04Z</time>
      </trkpt>
      <trkpt lat="44.10482" lon="7.18962">
        <ele>2208.783203</ele>
        <time>2020-09-04T08:59:21Z</time>
      </trkpt>
      <trkpt lat="44.10495" lon="7.1897">
        <ele>2212.809082</ele>
        <time>2020-09-04T09:00:12Z</time>
      </trkpt>
      <trkpt lat="44.10507" lon="7.1898">
        <ele>2215.910156</ele>
        <time>2020-09-04T09:00:29Z</time>
      </trkpt>
      <trkpt lat="44.10516" lon="7.18995">
        <ele>2219.638428</ele>
        <time>2020-09-04T09:00:47Z</time>
      </trkpt>
      <trkpt lat="44.10504" lon="7.19006">
        <ele>2225.812988</ele>
        <time>2020-09-04T09:01:04Z</time>
      </trkpt>
      <trkpt lat="44.10488" lon="7.19007">
        <ele>2224.138672</ele>
        <time>2020-09-04T09:01:19Z</time>
      </trkpt>
      <trkpt lat="44.10475" lon="7.19021">
        <ele>2224.17627</ele>
        <time>2020-09-04T09:01:35Z</time>
      </trkpt>
      <trkpt lat="44.10484" lon="7.19036">
        <ele>2230.745361</ele>
        <time>2020-09-04T09:02:07Z</time>
      </trkpt>
      <trkpt lat="44.10501" lon="7.19038">
        <ele>2236.338135</ele>
        <time>2020-09-04T09:02:22Z</time>
      </trkpt>
      <trkpt lat="44.10513" lon="7.19051">
        <ele>2238.543945</ele>
        <time>2020-09-04T09:02:38Z</time>
      </trkpt>
      <trkpt lat="44.1052" lon="7.19069">
        <ele>2243.600342</ele>
        <time>2020-09-04T09:02:55Z</time>
      </trkpt>
      <trkpt lat="44.10533" lon="7.19078">
        <ele>2245.575928</ele>
        <time>2020-09-04T09:03:12Z</time>
      </trkpt>
      <trkpt lat="44.10548" lon="7.1908">
        <ele>2245.141113</ele>
        <time>2020-09-04T09:03:28Z</time>
      </trkpt>
      <trkpt lat="44.10562" lon="7.1908">
        <ele>2244.05835</ele>
        <time>2020-09-04T09:03:46Z</time>
      </trkpt>
      <trkpt lat="44.10575" lon="7.19083">
        <ele>2244.570312</ele>
        <time>2020-09-04T09:04:02Z</time>
      </trkpt>
      <trkpt lat="44.10587" lon="7.19095">
        <ele>2247.619629</ele>
        <time>2020-09-04T09:04:17Z</time>
      </trkpt>
      <trkpt lat="44.10598" lon="7.19107">
        <ele>2250.395996</ele>
        <time>2020-09-04T09:05:01Z</time>
      </trkpt>
      <trkpt lat="44.10615" lon="7.19121">
        <ele>2253.530762</ele>
        <time>2020-09-04T09:05:17Z</time>
      </trkpt>
      <trkpt lat="44.10628" lon="7.19128">
        <ele>2254.508301</ele>
        <time>2020-09-04T09:06:02Z</time>
      </trkpt>
      <trkpt lat="44.10646" lon="7.19132">
        <ele>2254.522705</ele>
        <time>2020-09-04T09:06:17Z</time>
      </trkpt>
      <trkpt lat="44.10665" lon="7.1914">
        <ele>2256.189697</ele>
        <time>2020-09-04T09:06:33Z</time>
      </trkpt>
      <trkpt lat="44.10679" lon="7.19142">
        <ele>2255.043213</ele>
        <time>2020-09-04T09:06:48Z</time>
      </trkpt>
      <trkpt lat="44.10692" lon="7.19149">
        <ele>2256.08374</ele>
        <time>2020-09-04T09:07:05Z</time>
      </trkpt>
      <trkpt lat="44.10706" lon="7.19155">
        <ele>2256.118652</ele>
        <time>2020-09-04T09:07:20Z</time>
      </trkpt>
      <trkpt lat="44.10724" lon="7.19159">
        <ele>2254.883057</ele>
        <time>2020-09-04T09:07:35Z</time>
      </trkpt>
      <trkpt lat="44.10743" lon="7.19169">
        <ele>2255.133057</ele>
        <time>2020-09-04T09:07:50Z</time>
      </trkpt>
      <trkpt lat="44.10758" lon="7.1917">
        <ele>2252.105469</ele>
        <time>2020-09-04T09:08:06Z</time>
      </trkpt>
      <trkpt lat="44.10776" lon="7.19177">
        <ele>2249.92041</ele>
        <time>2020-09-04T09:08:22Z</time>
      </trkpt>
      <trkpt lat="44.10792" lon="7.19183">
        <ele>2248.375488</ele>
        <time>2020-09-04T09:08:38Z</time>
      </trkpt>
      <trkpt lat="44.10802" lon="7.19196">
        <ele>2251.152832</ele>
        <time>2020-09-04T09:08:56Z</time>
      </trkpt>
      <trkpt lat="44.10821" lon="7.1921">
        <ele>2251.816406</ele>
        <time>2020-09-04T09:09:12Z</time>
      </trkpt>
      <trkpt lat="44.10839" lon="7.19221">
        <ele>2252.643311</ele>
        <time>2020-09-04T09:09:28Z</time>
      </trkpt>
      <trkpt lat="44.10855" lon="7.19231">
        <ele>2256.818604</ele>
        <time>2020-09-04T09:09:43Z</time>
      </trkpt>
      <trkpt lat="44.10866" lon="7.19241">
        <ele>2261.629639</ele>
        <time>2020-09-04T09:10:01Z</time>
      </trkpt>
      <trkpt lat="44.10879" lon="7.19254">
        <ele>2267.264648</ele>
        <time>2020-09-04T09:10:17Z</time>
      </trkpt>
      <trkpt lat="44.10895" lon="7.1925">
        <ele>2265.769531</ele>
        <time>2020-09-04T09:10:33Z</time>
      </trkpt>
      <trkpt lat="44.10912" lon="7.19244">
        <ele>2263.296387</ele>
        <time>2020-09-04T09:10:48Z</time>
      </trkpt>
      <trkpt lat="44.10928" lon="7.19235">
        <ele>2260.128662</ele>
        <time>2020-09-04T09:11:03Z</time>
      </trkpt>
      <trkpt lat="44.10942" lon="7.19232">
        <ele>2260.027588</ele>
        <time>2020-09-04T09:11:21Z</time>
      </trkpt>
      <trkpt lat="44.10961" lon="7.19231">
        <ele>2261.640381</ele>
        <time>2020-09-04T09:11:37Z</time>
      </trkpt>
      <trkpt lat="44.10978" lon="7.19224">
        <ele>2261.304688</ele>
        <time>2020-09-04T09:11:53Z</time>
      </trkpt>
      <trkpt lat="44.10993" lon="7.19227">
        <ele>2264.003418</ele>
        <time>2020-09-04T09:12:09Z</time>
      </trkpt>
      <trkpt lat="44.11006" lon="7.19233">
        <ele>2266.037109</ele>
        <time>2020-09-04T09:12:26Z</time>
      </trkpt>
      <trkpt lat="44.11018" lon="7.19246">
        <ele>2268.192627</ele>
        <time>2020-09-04T09:12:42Z</time>
      </trkpt>
      <trkpt lat="44.11029" lon="7.19262">
        <ele>2269.213379</ele>
        <time>2020-09-04T09:12:57Z</time>
      </trkpt>
      <trkpt lat="44.11048" lon="7.19278">
        <ele>2269.210205</ele>
        <time>2020-09-04T09:13:13Z</time>
      </trkpt>
      <trkpt lat="44.11058" lon="7.19296">
        <ele>2270.693604</ele>
        <time>2020-09-04T09:13:29Z</time>
      </trkpt>
      <trkpt lat="44.11067" lon="7.19309">
        <ele>2271.686279</ele>
        <time>2020-09-04T09:13:47Z</time>
      </trkpt>
      <trkpt lat="44.11071" lon="7.19328">
        <ele>2273.944336</ele>
        <time>2020-09-04T09:14:02Z</time>
      </trkpt>
      <trkpt lat="44.11087" lon="7.19335">
        <ele>2275.430176</ele>
        <time>2020-09-04T09:14:18Z</time>
      </trkpt>
      <trkpt lat="44.11098" lon="7.19352">
        <ele>2281.449219</ele>
        <time>2020-09-04T09:14:34Z</time>
      </trkpt>
      <trkpt lat="44.11091" lon="7.19369">
        <ele>2282.665039</ele>
        <time>2020-09-04T09:14:50Z</time>
      </trkpt>
      <trkpt lat="44.11085" lon="7.19387">
        <ele>2284.624268</ele>
        <time>2020-09-04T09:15:22Z</time>
      </trkpt>
      <trkpt lat="44.11088" lon="7.19406">
        <ele>2288.689453</ele>
        <time>2020-09-04T09:15:43Z</time>
      </trkpt>
      <trkpt lat="44.11102" lon="7.19406">
        <ele>2290.938965</ele>
        <time>2020-09-04T09:16:05Z</time>
      </trkpt>
      <trkpt lat="44.11116" lon="7.19401">
        <ele>2292.581055</ele>
        <time>2020-09-04T09:16:22Z</time>
      </trkpt>
      <trkpt lat="44.1113" lon="7.19399">
        <ele>2294.768799</ele>
        <time>2020-09-04T09:16:38Z</time>
      </trkpt>
      <trkpt lat="44.11145" lon="7.19401">
        <ele>2297.463623</ele>
        <time>2020-09-04T09:16:58Z</time>
      </trkpt>
      <trkpt lat="44.11164" lon="7.19403">
        <ele>2300.81543</ele>
        <time>2020-09-04T09:17:14Z</time>
      </trkpt>
      <trkpt lat="44.11182" lon="7.19401">
        <ele>2303.808594</ele>
        <time>2020-09-04T09:17:29Z</time>
      </trkpt>
      <trkpt lat="44.11199" lon="7.19397">
        <ele>2306.600098</ele>
        <time>2020-09-04T09:17:44Z</time>
      </trkpt>
      <trkpt lat="44.11221" lon="7.19396">
        <ele>2310.38208</ele>
        <time>2020-09-04T09:18:00Z</time>
      </trkpt>
      <trkpt lat="44.11234" lon="7.19405">
        <ele>2312.230469</ele>
        <time>2020-09-04T09:18:15Z</time>
      </trkpt>
      <trkpt lat="44.11246" lon="7.19418">
        <ele>2313.274658</ele>
        <time>2020-09-04T09:18:31Z</time>
      </trkpt>
      <trkpt lat="44.11262" lon="7.1942">
        <ele>2313.796875</ele>
        <time>2020-09-04T09:18:47Z</time>
      </trkpt>
      <trkpt lat="44.11277" lon="7.19427">
        <ele>2313.349854</ele>
        <time>2020-09-04T09:19:03Z</time>
      </trkpt>
      <trkpt lat="44.11295" lon="7.19434">
        <ele>2313.276367</ele>
        <time>2020-09-04T09:19:18Z</time>
      </trkpt>
      <trkpt lat="44.1131" lon="7.19441">
        <ele>2313.294434</ele>
        <time>2020-09-04T09:19:34Z</time>
      </trkpt>
      <trkpt lat="44.11326" lon="7.19455">
        <ele>2313.259766</ele>
        <time>2020-09-04T09:19:50Z</time>
      </trkpt>
      <trkpt lat="44.11341" lon="7.19456">
        <ele>2314.955322</ele>
        <time>2020-09-04T09:20:05Z</time>
      </trkpt>
      <trkpt lat="44.11356" lon="7.19462">
        <ele>2317.256592</ele>
        <time>2020-09-04T09:20:20Z</time>
      </trkpt>
      <trkpt lat="44.11373" lon="7.19453">
        <ele>2320.583008</ele>
        <time>2020-09-04T09:20:36Z</time>
      </trkpt>
      <trkpt lat="44.11388" lon="7.1945">
        <ele>2323.279785</ele>
        <time>2020-09-04T09:20:52Z</time>
      </trkpt>
      <trkpt lat="44.11402" lon="7.19449">
        <ele>2325.773926</ele>
        <time>2020-09-04T09:21:11Z</time>
      </trkpt>
      <trkpt lat="44.11417" lon="7.19448">
        <ele>2328.252441</ele>
        <time>2020-09-04T09:21:28Z</time>
      </trkpt>
      <trkpt lat="44.11431" lon="7.19451">
        <ele>2330.69043</ele>
        <time>2020-09-04T09:21:43Z</time>
      </trkpt>
      <trkpt lat="44.11444" lon="7.19446">
        <ele>2333.10083</ele>
        <time>2020-09-04T09:23:04Z</time>
      </trkpt>
      <trkpt lat="44.11458" lon="7.19438">
        <ele>2335.334961</ele>
        <time>2020-09-04T09:23:49Z</time>
      </trkpt>
      <trkpt lat="44.11472" lon="7.19432">
        <ele>2337.402344</ele>
        <time>2020-09-04T09:24:05Z</time>
      </trkpt>
      <trkpt lat="44.11485" lon="7.19428">
        <ele>2339.39624</ele>
        <time>2020-09-04T09:24:26Z</time>
      </trkpt>
      <trkpt lat="44.11497" lon="7.19417">
        <ele>2340.520508</ele>
        <time>2020-09-04T09:24:47Z</time>
      </trkpt>
      <trkpt lat="44.11511" lon="7.19413">
        <ele>2341.793701</ele>
        <time>2020-09-04T09:25:02Z</time>
      </trkpt>
      <trkpt lat="44.11526" lon="7.19419">
        <ele>2343.946289</ele>
        <time>2020-09-04T09:25:18Z</time>
      </trkpt>
      <trkpt lat="44.11542" lon="7.19423">
        <ele>2345.91626</ele>
        <time>2020-09-04T09:25:34Z</time>
      </trkpt>
      <trkpt lat="44.11557" lon="7.1944">
        <ele>2348.57666</ele>
        <time>2020-09-04T09:25:50Z</time>
      </trkpt>
      <trkpt lat="44.11572" lon="7.19455">
        <ele>2351.029785</ele>
        <time>2020-09-04T09:26:05Z</time>
      </trkpt>
      <trkpt lat="44.1159" lon="7.19465">
        <ele>2353.627686</ele>
        <time>2020-09-04T09:26:21Z</time>
      </trkpt>
      <trkpt lat="44.11603" lon="7.19471">
        <ele>2355.487549</ele>
        <time>2020-09-04T09:27:50Z</time>
      </trkpt>
      <trkpt lat="44.11618" lon="7.19477">
        <ele>2357.416992</ele>
        <time>2020-09-04T09:28:05Z</time>
      </trkpt>
      <trkpt lat="44.11633" lon="7.19481">
        <ele>2359.188232</ele>
        <time>2020-09-04T09:28:21Z</time>
      </trkpt>
      <trkpt lat="44.11646" lon="7.19487">
        <ele>2360.738281</ele>
        <time>2020-09-04T09:28:38Z</time>
      </trkpt>
      <trkpt lat="44.11661" lon="7.19488">
        <ele>2362.220947</ele>
        <time>2020-09-04T09:29:18Z</time>
      </trkpt>
      <trkpt lat="44.11674" lon="7.19493">
        <ele>2366.021973</ele>
        <time>2020-09-04T09:29:43Z</time>
      </trkpt>
      <trkpt lat="44.11688" lon="7.19493">
        <ele>2372.249023</ele>
        <time>2020-09-04T09:29:58Z</time>
      </trkpt>
      <trkpt lat="44.11701" lon="7.19498">
        <ele>2377.886719</ele>
        <time>2020-09-04T09:30:16Z</time>
      </trkpt>
      <trkpt lat="44.11714" lon="7.19503">
        <ele>2383.810303</ele>
        <time>2020-09-04T09:30:37Z</time>
      </trkpt>
      <trkpt lat="44.11725" lon="7.19515">
        <ele>2389.165039</ele>
        <time>2020-09-04T09:31:33Z</time>
      </trkpt>
      <trkpt lat="44.11724" lon="7.19535">
        <ele>2390.627197</ele>
        <time>2020-09-04T09:31:49Z</time>
      </trkpt>
      <trkpt lat="44.11725" lon="7.19559">
        <ele>2392.547363</ele>
        <time>2020-09-04T09:32:05Z</time>
      </trkpt>
      <trkpt lat="44.11714" lon="7.19572">
        <ele>2392.423828</ele>
        <time>2020-09-04T09:32:21Z</time>
      </trkpt>
      <trkpt lat="44.11712" lon="7.19593">
        <ele>2393.96167</ele>
        <time>2020-09-04T09:32:36Z</time>
      </trkpt>
      <trkpt lat="44.11713" lon="7.19612">
        <ele>2394.545166</ele>
        <time>2020-09-04T09:32:53Z</time>
      </trkpt>
      <trkpt lat="44.11721" lon="7.19627">
        <ele>2395.649414</ele>
        <time>2020-09-04T09:33:13Z</time>
      </trkpt>
      <trkpt lat="44.11735" lon="7.1962">
        <ele>2396.49707</ele>
        <time>2020-09-04T09:33:46Z</time>
      </trkpt>
      <trkpt lat="44.11753" lon="7.19625">
        <ele>2399.818604</ele>
        <time>2020-09-04T09:34:02Z</time>
      </trkpt>
      <trkpt lat="44.11765" lon="7.19637">
        <ele>2407.678467</ele>
        <time>2020-09-04T09:34:17Z</time>
      </trkpt>
      <trkpt lat="44.11776" lon="7.1965">
        <ele>2414.62085</ele>
        <time>2020-09-04T09:34:33Z</time>
      </trkpt>
      <trkpt lat="44.11785" lon="7.19666">
        <ele>2420.297852</ele>
        <time>2020-09-04T09:34:49Z</time>
      </trkpt>
      <trkpt lat="44.11788" lon="7.19684">
        <ele>2421.091797</ele>
        <time>2020-09-04T09:35:18Z</time>
      </trkpt>
      <trkpt lat="44.11789" lon="7.19704">
        <ele>2421.466797</ele>
        <time>2020-09-04T09:35:37Z</time>
      </trkpt>
      <trkpt lat="44.11793" lon="7.19723">
        <ele>2423.326172</ele>
        <time>2020-09-04T09:36:07Z</time>
      </trkpt>
      <trkpt lat="44.11792" lon="7.19746">
        <ele>2422.172363</ele>
        <time>2020-09-04T09:36:22Z</time>
      </trkpt>
      <trkpt lat="44.11792" lon="7.19769">
        <ele>2424.381348</ele>
        <time>2020-09-04T09:36:37Z</time>
      </trkpt>
      <trkpt lat="44.11805" lon="7.19778">
        <ele>2434.766846</ele>
        <time>2020-09-04T09:37:23Z</time>
      </trkpt>
      <trkpt lat="44.11798" lon="7.19794">
        <ele>2431.359863</ele>
        <time>2020-09-04T09:37:42Z</time>
      </trkpt>
      <trkpt lat="44.11796" lon="7.19818">
        <ele>2432.689697</ele>
        <time>2020-09-04T09:37:57Z</time>
      </trkpt>
      <trkpt lat="44.11795" lon="7.19838">
        <ele>2434.346191</ele>
        <time>2020-09-04T09:38:17Z</time>
      </trkpt>
      <trkpt lat="44.1179" lon="7.19857">
        <ele>2434.821289</ele>
        <time>2020-09-04T09:38:33Z</time>
      </trkpt>
      <trkpt lat="44.11785" lon="7.19874">
        <ele>2434.738281</ele>
        <time>2020-09-04T09:38:50Z</time>
      </trkpt>
      <trkpt lat="44.11775" lon="7.19897">
        <ele>2432.60791</ele>
        <time>2020-09-04T09:39:05Z</time>
      </trkpt>
      <trkpt lat="44.11775" lon="7.19916">
        <ele>2437.086182</ele>
        <time>2020-09-04T09:39:31Z</time>
      </trkpt>
      <trkpt lat="44.11768" lon="7.19936">
        <ele>2437.300537</ele>
        <time>2020-09-04T09:39:46Z</time>
      </trkpt>
      <trkpt lat="44.11765" lon="7.19955">
        <ele>2439.423096</ele>
        <time>2020-09-04T09:40:05Z</time>
      </trkpt>
      <trkpt lat="44.11774" lon="7.19969">
        <ele>2447.986816</ele>
        <time>2020-09-04T09:41:12Z</time>
      </trkpt>
      <trkpt lat="44.11762" lon="7.19984">
        <ele>2445.311035</ele>
        <time>2020-09-04T09:41:27Z</time>
      </trkpt>
      <trkpt lat="44.11753" lon="7.2">
        <ele>2444.506836</ele>
        <time>2020-09-04T09:41:44Z</time>
      </trkpt>
      <trkpt lat="44.11743" lon="7.20021">
        <ele>2443.239014</ele>
        <time>2020-09-04T09:41:59Z</time>
      </trkpt>
      <trkpt lat="44.11734" lon="7.20043">
        <ele>2444.429199</ele>
        <time>2020-09-04T09:42:15Z</time>
      </trkpt>
      <trkpt lat="44.1173" lon="7.20065">
        <ele>2448.007568</ele>
        <time>2020-09-04T09:42:31Z</time>
      </trkpt>
      <trkpt lat="44.11722" lon="7.20083">
        <ele>2450.679688</ele>
        <time>2020-09-04T09:42:46Z</time>
      </trkpt>
      <trkpt lat="44.11715" lon="7.20102">
        <ele>2446.775635</ele>
        <time>2020-09-04T09:43:01Z</time>
      </trkpt>
      <trkpt lat="44.11706" lon="7.20118">
        <ele>2444.625</ele>
        <time>2020-09-04T09:46:23Z</time>
      </trkpt>
      <trkpt lat="44.117" lon="7.20135">
        <ele>2444.283691</ele>
        <time>2020-09-04T09:49:35Z</time>
      </trkpt>
      <trkpt lat="44.11688" lon="7.20146">
        <ele>2446.109375</ele>
        <time>2020-09-04T09:49:52Z</time>
      </trkpt>
      <trkpt lat="44.11673" lon="7.20154">
        <ele>2449.896973</ele>
        <time>2020-09-04T09:50:08Z</time>
      </trkpt>
      <trkpt lat="44.1166" lon="7.2016">
        <ele>2451.924316</ele>
        <time>2020-09-04T09:50:30Z</time>
      </trkpt>
      <trkpt lat="44.11655" lon="7.20179">
        <ele>2451.37793</ele>
        <time>2020-09-04T09:51:17Z</time>
      </trkpt>
      <trkpt lat="44.11651" lon="7.20197">
        <ele>2449.336182</ele>
        <time>2020-09-04T09:51:38Z</time>
      </trkpt>
      <trkpt lat="44.11638" lon="7.20205">
        <ele>2450.0625</ele>
        <time>2020-09-04T09:51:56Z</time>
      </trkpt>
      <trkpt lat="44.11626" lon="7.20216">
        <ele>2451.887207</ele>
        <time>2020-09-04T09:52:15Z</time>
      </trkpt>
      <trkpt lat="44.11613" lon="7.20219">
        <ele>2454.593018</ele>
        <time>2020-09-04T09:52:32Z</time>
      </trkpt>
      <trkpt lat="44.116" lon="7.20226">
        <ele>2458.435303</ele>
        <time>2020-09-04T09:52:54Z</time>
      </trkpt>
      <trkpt lat="44.11588" lon="7.20236">
        <ele>2463.764893</ele>
        <time>2020-09-04T09:53:20Z</time>
      </trkpt>
      <trkpt lat="44.11576" lon="7.20247">
        <ele>2469.395508</ele>
        <time>2020-09-04T09:54:00Z</time>
      </trkpt>
      <trkpt lat="44.11567" lon="7.20261">
        <ele>2472.096924</ele>
        <time>2020-09-04T09:54:35Z</time>
      </trkpt>
      <trkpt lat="44.11553" lon="7.20266">
        <ele>2475.931396</ele>
        <time>2020-09-04T09:54:59Z</time>
      </trkpt>
      <trkpt lat="44.1154" lon="7.20273">
        <ele>2480.333984</ele>
        <time>2020-09-04T09:55:20Z</time>
      </trkpt>
      <trkpt lat="44.11528" lon="7.20283">
        <ele>2485.674805</ele>
        <time>2020-09-04T09:56:07Z</time>
      </trkpt>
      <trkpt lat="44.11517" lon="7.20294">
        <ele>2492.327393</ele>
        <time>2020-09-04T09:56:53Z</time>
      </trkpt>
      <trkpt lat="44.11504" lon="7.20299">
        <ele>2499.160889</ele>
        <time>2020-09-04T09:57:51Z</time>
      </trkpt>
      <trkpt lat="44.11493" lon="7.20311">
        <ele>2507.683838</ele>
        <time>2020-09-04T09:58:55Z</time>
      </trkpt>
      <trkpt lat="44.1148" lon="7.20317">
        <ele>2514.800781</ele>
        <time>2020-09-04T09:59:19Z</time>
      </trkpt>
      <trkpt lat="44.11466" lon="7.20317">
        <ele>2520.758057</ele>
        <time>2020-09-04T10:00:05Z</time>
      </trkpt>
      <trkpt lat="44.11452" lon="7.20316">
        <ele>2525.758301</ele>
        <time>2020-09-04T10:00:35Z</time>
      </trkpt>
      <trkpt lat="44.11439" lon="7.20324">
        <ele>2534.244873</ele>
        <time>2020-09-04T10:01:35Z</time>
      </trkpt>
      <trkpt lat="44.11426" lon="7.20323">
        <ele>2539.515625</ele>
        <time>2020-09-04T10:01:56Z</time>
      </trkpt>
      <trkpt lat="44.11412" lon="7.2032">
        <ele>2543.901123</ele>
        <time>2020-09-04T10:03:21Z</time>
      </trkpt>
      <trkpt lat="44.11398" lon="7.2032">
        <ele>2550.340088</ele>
        <time>2020-09-04T10:04:00Z</time>
      </trkpt>
      <trkpt lat="44.11385" lon="7.20314">
        <ele>2553.887207</ele>
        <time>2020-09-04T10:04:19Z</time>
      </trkpt>
      <trkpt lat="44.11373" lon="7.20322">
        <ele>2562.47583</ele>
        <time>2020-09-04T10:08:31Z</time>
      </trkpt>
      <trkpt lat="44.11361" lon="7.2033">
        <ele>2570.604248</ele>
        <time>2020-09-04T10:08:48Z</time>
      </trkpt>
      <trkpt lat="44.11347" lon="7.2033">
        <ele>2576.374268</ele>
        <time>2020-09-04T10:09:04Z</time>
      </trkpt>
      <trkpt lat="44.11333" lon="7.2033">
        <ele>2582.164551</ele>
        <time>2020-09-04T10:09:23Z</time>
      </trkpt>
      <trkpt lat="44.11318" lon="7.20327">
        <ele>2585.265137</ele>
        <time>2020-09-04T10:09:39Z</time>
      </trkpt>
      <trkpt lat="44.11307" lon="7.20316">
        <ele>2586.707031</ele>
        <time>2020-09-04T10:10:47Z</time>
      </trkpt>
      <trkpt lat="44.11293" lon="7.20316">
        <ele>2590.87207</ele>
        <time>2020-09-04T10:11:03Z</time>
      </trkpt>
      <trkpt lat="44.1128" lon="7.20318">
        <ele>2594.932129</ele>
        <time>2020-09-04T10:11:19Z</time>
      </trkpt>
      <trkpt lat="44.11287" lon="7.20302">
        <ele>2592.479736</ele>
        <time>2020-09-04T10:11:43Z</time>
      </trkpt>
      <trkpt lat="44.11276" lon="7.20291">
        <ele>2596.936523</ele>
        <time>2020-09-04T10:12:15Z</time>
      </trkpt>
      <trkpt lat="44.1128" lon="7.20272">
        <ele>2595.591797</ele>
        <time>2020-09-04T10:12:48Z</time>
      </trkpt>
      <trkpt lat="44.1127" lon="7.20258">
        <ele>2601.705566</ele>
        <time>2020-09-04T10:13:07Z</time>
      </trkpt>
      <trkpt lat="44.1126" lon="7.20245">
        <ele>2606.888672</ele>
        <time>2020-09-04T10:14:03Z</time>
      </trkpt>
      <trkpt lat="44.11247" lon="7.2025">
        <ele>2615.805664</ele>
        <time>2020-09-04T10:14:29Z</time>
      </trkpt>
      <trkpt lat="44.11233" lon="7.20245">
        <ele>2618.47998</ele>
        <time>2020-09-04T10:15:17Z</time>
      </trkpt>
      <trkpt lat="44.11217" lon="7.20244">
        <ele>2622.622559</ele>
        <time>2020-09-04T10:16:01Z</time>
      </trkpt>
      <trkpt lat="44.11225" lon="7.20228">
        <ele>2614.424316</ele>
        <time>2020-09-04T10:16:35Z</time>
      </trkpt>
      <trkpt lat="44.11212" lon="7.20223">
        <ele>2615.395996</ele>
        <time>2020-09-04T10:17:10Z</time>
      </trkpt>
      <trkpt lat="44.11198" lon="7.20226">
        <ele>2620.195312</ele>
        <time>2020-09-04T10:18:00Z</time>
      </trkpt>
      <trkpt lat="44.11182" lon="7.2023">
        <ele>2626.001709</ele>
        <time>2020-09-04T10:18:15Z</time>
      </trkpt>
      <trkpt lat="44.11163" lon="7.20235">
        <ele>2633.136963</ele>
        <time>2020-09-04T10:18:31Z</time>
      </trkpt>
      <trkpt lat="44.11149" lon="7.20232">
        <ele>2633.810547</ele>
        <time>2020-09-04T10:18:49Z</time>
      </trkpt>
      <trkpt lat="44.11131" lon="7.2023">
        <ele>2635.91748</ele>
        <time>2020-09-04T10:19:30Z</time>
      </trkpt>
      <trkpt lat="44.11118" lon="7.20228">
        <ele>2637.344238</ele>
        <time>2020-09-04T10:19:58Z</time>
      </trkpt>
      <trkpt lat="44.11104" lon="7.20228">
        <ele>2639.187988</ele>
        <time>2020-09-04T10:20:17Z</time>
      </trkpt>
      <trkpt lat="44.11089" lon="7.20229">
        <ele>2642.355469</ele>
        <time>2020-09-04T10:20:38Z</time>
      </trkpt>
      <trkpt lat="44.11076" lon="7.20223">
        <ele>2640.300049</ele>
        <time>2020-09-04T10:20:56Z</time>
      </trkpt>
      <trkpt lat="44.11063" lon="7.20228">
        <ele>2643.195312</ele>
        <time>2020-09-04T10:21:18Z</time>
      </trkpt>
      <trkpt lat="44.1105" lon="7.2022">
        <ele>2639.987061</ele>
        <time>2020-09-04T10:26:43Z</time>
      </trkpt>
      <trkpt lat="44.11055" lon="7.20201">
        <ele>2631.435791</ele>
        <time>2020-09-04T10:35:45Z</time>
      </trkpt>
      <trkpt lat="44.11041" lon="7.20199">
        <ele>2632.530762</ele>
        <time>2020-09-04T10:42:41Z</time>
      </trkpt>
      <trkpt lat="44.1105" lon="7.20213">
        <ele>2637.320312</ele>
        <time>2020-09-04T10:45:05Z</time>
      </trkpt>
      <trkpt lat="44.11036" lon="7.20213">
        <ele>2638.164062</ele>
        <time>2020-09-04T10:55:54Z</time>
      </trkpt>
      <trkpt lat="44.11049" lon="7.20215">
        <ele>2638.204346</ele>
        <time>2020-09-04T10:57:02Z</time>
      </trkpt>
      <trkpt lat="44.11043" lon="7.20232">
        <ele>2645.441406</ele>
        <time>2020-09-04T10:57:45Z</time>
      </trkpt>
      <trkpt lat="44.11038" lon="7.20251">
        <ele>2652.120117</ele>
        <time>2020-09-04T10:58:01Z</time>
      </trkpt>
      <trkpt lat="44.11034" lon="7.20271">
        <ele>2647.661133</ele>
        <time>2020-09-04T10:58:16Z</time>
      </trkpt>
      <trkpt lat="44.11034" lon="7.20292">
        <ele>2643.162598</ele>
        <time>2020-09-04T10:58:31Z</time>
      </trkpt>
      <trkpt lat="44.1103" lon="7.2031">
        <ele>2639.517334</ele>
        <time>2020-09-04T10:58:51Z</time>
      </trkpt>
      <trkpt lat="44.11026" lon="7.20329">
        <ele>2635.967285</ele>
        <time>2020-09-04T10:59:09Z</time>
      </trkpt>
      <trkpt lat="44.11019" lon="7.20347">
        <ele>2631.760742</ele>
        <time>2020-09-04T10:59:24Z</time>
      </trkpt>
      <trkpt lat="44.11012" lon="7.20364">
        <ele>2627.839844</ele>
        <time>2020-09-04T10:59:40Z</time>
      </trkpt>
      <trkpt lat="44.11001" lon="7.2038">
        <ele>2625.755615</ele>
        <time>2020-09-04T11:00:12Z</time>
      </trkpt>
      <trkpt lat="44.10995" lon="7.20397">
        <ele>2619.538086</ele>
        <time>2020-09-04T11:00:45Z</time>
      </trkpt>
      <trkpt lat="44.10989" lon="7.20414">
        <ele>2612.960693</ele>
        <time>2020-09-04T11:01:15Z</time>
      </trkpt>
      <trkpt lat="44.10972" lon="7.20418">
        <ele>2604.785645</ele>
        <time>2020-09-04T11:02:24Z</time>
      </trkpt>
      <trkpt lat="44.10962" lon="7.20431">
        <ele>2596.720215</ele>
        <time>2020-09-04T11:03:34Z</time>
      </trkpt>
      <trkpt lat="44.1095" lon="7.20439">
        <ele>2590.581543</ele>
        <time>2020-09-04T11:03:54Z</time>
      </trkpt>
      <trkpt lat="44.10936" lon="7.20443">
        <ele>2585.819336</ele>
        <time>2020-09-04T11:04:15Z</time>
      </trkpt>
      <trkpt lat="44.10924" lon="7.20452">
        <ele>2581.583496</ele>
        <time>2020-09-04T11:04:31Z</time>
      </trkpt>
      <trkpt lat="44.1091" lon="7.20462">
        <ele>2577.205078</ele>
        <time>2020-09-04T11:04:47Z</time>
      </trkpt>
      <trkpt lat="44.10896" lon="7.20465">
        <ele>2573.034424</ele>
        <time>2020-09-04T11:05:03Z</time>
      </trkpt>
      <trkpt lat="44.10881" lon="7.20475">
        <ele>2568.454102</ele>
        <time>2020-09-04T11:05:18Z</time>
      </trkpt>
      <trkpt lat="44.10866" lon="7.20491">
        <ele>2564.979492</ele>
        <time>2020-09-04T11:05:33Z</time>
      </trkpt>
      <trkpt lat="44.10851" lon="7.20505">
        <ele>2561.74292</ele>
        <time>2020-09-04T11:05:49Z</time>
      </trkpt>
      <trkpt lat="44.10837" lon="7.20527">
        <ele>2558.724365</ele>
        <time>2020-09-04T11:06:05Z</time>
      </trkpt>
      <trkpt lat="44.10824" lon="7.20546">
        <ele>2553.507568</ele>
        <time>2020-09-04T11:06:21Z</time>
      </trkpt>
      <trkpt lat="44.10814" lon="7.2056">
        <ele>2548.874512</ele>
        <time>2020-09-04T11:06:52Z</time>
      </trkpt>
      <trkpt lat="44.10803" lon="7.20573">
        <ele>2544.692871</ele>
        <time>2020-09-04T11:07:09Z</time>
      </trkpt>
      <trkpt lat="44.1079" lon="7.20589">
        <ele>2539.815186</ele>
        <time>2020-09-04T11:07:24Z</time>
      </trkpt>
      <trkpt lat="44.10775" lon="7.20611">
        <ele>2535.618652</ele>
        <time>2020-09-04T11:07:40Z</time>
      </trkpt>
      <trkpt lat="44.10759" lon="7.20627">
        <ele>2534.061279</ele>
        <time>2020-09-04T11:07:56Z</time>
      </trkpt>
      <trkpt lat="44.10754" lon="7.20644">
        <ele>2536.955078</ele>
        <time>2020-09-04T11:08:37Z</time>
      </trkpt>
      <trkpt lat="44.10739" lon="7.20644">
        <ele>2531.460449</ele>
        <time>2020-09-04T11:10:14Z</time>
      </trkpt>
      <trkpt lat="44.1073" lon="7.20659">
        <ele>2530.938232</ele>
        <time>2020-09-04T11:10:30Z</time>
      </trkpt>
      <trkpt lat="44.1072" lon="7.20675">
        <ele>2529.056396</ele>
        <time>2020-09-04T11:11:40Z</time>
      </trkpt>
      <trkpt lat="44.10713" lon="7.20658">
        <ele>2522.688965</ele>
        <time>2020-09-04T11:13:21Z</time>
      </trkpt>
      <trkpt lat="44.10704" lon="7.20643">
        <ele>2514.41626</ele>
        <time>2020-09-04T11:15:40Z</time>
      </trkpt>
      <trkpt lat="44.10701" lon="7.20624">
        <ele>2508.104492</ele>
        <time>2020-09-04T11:16:49Z</time>
      </trkpt>
      <trkpt lat="44.10691" lon="7.20612">
        <ele>2499.792725</ele>
        <time>2020-09-04T11:17:49Z</time>
      </trkpt>
      <trkpt lat="44.10691" lon="7.20592">
        <ele>2494.885742</ele>
        <time>2020-09-04T11:19:00Z</time>
      </trkpt>
      <trkpt lat="44.10704" lon="7.20581">
        <ele>2498.052246</ele>
        <time>2020-09-04T11:19:18Z</time>
      </trkpt>
      <trkpt lat="44.10712" lon="7.20565">
        <ele>2499.320801</ele>
        <time>2020-09-04T11:19:47Z</time>
      </trkpt>
      <trkpt lat="44.10721" lon="7.20549">
        <ele>2500.064209</ele>
        <time>2020-09-04T11:20:23Z</time>
      </trkpt>
      <trkpt lat="44.10724" lon="7.2053">
        <ele>2497.200439</ele>
        <time>2020-09-04T11:20:53Z</time>
      </trkpt>
      <trkpt lat="44.10724" lon="7.2051">
        <ele>2493.206543</ele>
        <time>2020-09-04T11:21:48Z</time>
      </trkpt>
      <trkpt lat="44.10726" lon="7.20491">
        <ele>2491.197754</ele>
        <time>2020-09-04T11:22:07Z</time>
      </trkpt>
      <trkpt lat="44.10724" lon="7.20471">
        <ele>2488.017334</ele>
        <time>2020-09-04T11:22:23Z</time>
      </trkpt>
      <trkpt lat="44.10716" lon="7.20456">
        <ele>2482.142578</ele>
        <time>2020-09-04T11:22:42Z</time>
      </trkpt>
      <trkpt lat="44.10701" lon="7.20456">
        <ele>2474.460449</ele>
        <time>2020-09-04T11:22:57Z</time>
      </trkpt>
      <trkpt lat="44.10688" lon="7.20456">
        <ele>2467.646973</ele>
        <time>2020-09-04T11:23:59Z</time>
      </trkpt>
      <trkpt lat="44.10683" lon="7.20438">
        <ele>2462.337402</ele>
        <time>2020-09-04T11:24:32Z</time>
      </trkpt>
      <trkpt lat="44.10677" lon="7.2042">
        <ele>2456.117432</ele>
        <time>2020-09-04T11:24:56Z</time>
      </trkpt>
      <trkpt lat="44.10668" lon="7.20404">
        <ele>2450.045166</ele>
        <time>2020-09-04T11:25:12Z</time>
      </trkpt>
      <trkpt lat="44.10668" lon="7.20384">
        <ele>2448.412109</ele>
        <time>2020-09-04T11:25:28Z</time>
      </trkpt>
      <trkpt lat="44.10661" lon="7.20364">
        <ele>2446.192383</ele>
        <time>2020-09-04T11:25:44Z</time>
      </trkpt>
      <trkpt lat="44.10652" lon="7.20349">
        <ele>2444.925781</ele>
        <time>2020-09-04T11:26:16Z</time>
      </trkpt>
      <trkpt lat="44.10639" lon="7.20343">
        <ele>2444.143066</ele>
        <time>2020-09-04T11:26:59Z</time>
      </trkpt>
      <trkpt lat="44.10626" lon="7.20345">
        <ele>2444.157715</ele>
        <time>2020-09-04T11:27:34Z</time>
      </trkpt>
      <trkpt lat="44.10617" lon="7.20325">
        <ele>2442.800293</ele>
        <time>2020-09-04T11:27:49Z</time>
      </trkpt>
      <trkpt lat="44.10608" lon="7.20304">
        <ele>2442.598633</ele>
        <time>2020-09-04T11:28:04Z</time>
      </trkpt>
      <trkpt lat="44.10597" lon="7.20287">
        <ele>2442.334961</ele>
        <time>2020-09-04T11:28:50Z</time>
      </trkpt>
      <trkpt lat="44.10592" lon="7.20263">
        <ele>2442.202148</ele>
        <time>2020-09-04T11:29:06Z</time>
      </trkpt>
      <trkpt lat="44.1059" lon="7.20244">
        <ele>2442.818115</ele>
        <time>2020-09-04T11:29:54Z</time>
      </trkpt>
      <trkpt lat="44.10595" lon="7.20221">
        <ele>2445.103271</ele>
        <time>2020-09-04T11:30:10Z</time>
      </trkpt>
      <trkpt lat="44.10603" lon="7.20206">
        <ele>2446.510986</ele>
        <time>2020-09-04T11:30:30Z</time>
      </trkpt>
      <trkpt lat="44.10616" lon="7.20184">
        <ele>2448.027832</ele>
        <time>2020-09-04T11:30:46Z</time>
      </trkpt>
      <trkpt lat="44.10627" lon="7.20169">
        <ele>2448.71875</ele>
        <time>2020-09-04T11:31:13Z</time>
      </trkpt>
      <trkpt lat="44.10634" lon="7.20143">
        <ele>2446.618652</ele>
        <time>2020-09-04T11:31:28Z</time>
      </trkpt>
      <trkpt lat="44.10639" lon="7.20115">
        <ele>2444.981201</ele>
        <time>2020-09-04T11:31:43Z</time>
      </trkpt>
      <trkpt lat="44.10635" lon="7.2009">
        <ele>2442.622803</ele>
        <time>2020-09-04T11:31:58Z</time>
      </trkpt>
      <trkpt lat="44.10629" lon="7.2006">
        <ele>2437.592773</ele>
        <time>2020-09-04T11:32:14Z</time>
      </trkpt>
      <trkpt lat="44.1062" lon="7.2004">
        <ele>2431.29248</ele>
        <time>2020-09-04T11:32:30Z</time>
      </trkpt>
      <trkpt lat="44.10613" lon="7.20024">
        <ele>2425.003906</ele>
        <time>2020-09-04T11:33:15Z</time>
      </trkpt>
      <trkpt lat="44.10599" lon="7.20025">
        <ele>2417.851318</ele>
        <time>2020-09-04T11:34:44Z</time>
      </trkpt>
      <trkpt lat="44.10585" lon="7.20022">
        <ele>2409.978271</ele>
        <time>2020-09-04T11:37:29Z</time>
      </trkpt>
      <trkpt lat="44.10575" lon="7.20009">
        <ele>2401.016846</ele>
        <time>2020-09-04T11:38:27Z</time>
      </trkpt>
      <trkpt lat="44.10569" lon="7.19991">
        <ele>2394.144531</ele>
        <time>2020-09-04T11:39:12Z</time>
      </trkpt>
      <trkpt lat="44.10559" lon="7.19979">
        <ele>2387.443115</ele>
        <time>2020-09-04T11:39:58Z</time>
      </trkpt>
      <trkpt lat="44.10546" lon="7.19972">
        <ele>2380.62793</ele>
        <time>2020-09-04T11:40:28Z</time>
      </trkpt>
      <trkpt lat="44.10544" lon="7.19953">
        <ele>2376.418945</ele>
        <time>2020-09-04T11:40:44Z</time>
      </trkpt>
      <trkpt lat="44.10527" lon="7.19938">
        <ele>2366.966797</ele>
        <time>2020-09-04T11:41:00Z</time>
      </trkpt>
      <trkpt lat="44.10516" lon="7.19929">
        <ele>2360.452148</ele>
        <time>2020-09-04T11:41:19Z</time>
      </trkpt>
      <trkpt lat="44.10506" lon="7.19914">
        <ele>2354.296875</ele>
        <time>2020-09-04T11:41:34Z</time>
      </trkpt>
      <trkpt lat="44.10492" lon="7.19904">
        <ele>2349.931641</ele>
        <time>2020-09-04T11:41:49Z</time>
      </trkpt>
      <trkpt lat="44.10471" lon="7.1989">
        <ele>2344.295654</ele>
        <time>2020-09-04T11:42:05Z</time>
      </trkpt>
      <trkpt lat="44.10458" lon="7.19867">
        <ele>2339.433838</ele>
        <time>2020-09-04T11:42:21Z</time>
      </trkpt>
      <trkpt lat="44.1045" lon="7.1984">
        <ele>2335.095703</ele>
        <time>2020-09-04T11:42:36Z</time>
      </trkpt>
      <trkpt lat="44.10439" lon="7.19814">
        <ele>2328.331299</ele>
        <time>2020-09-04T11:42:52Z</time>
      </trkpt>
      <trkpt lat="44.10425" lon="7.19794">
        <ele>2321.476074</ele>
        <time>2020-09-04T11:43:07Z</time>
      </trkpt>
      <trkpt lat="44.10414" lon="7.19779">
        <ele>2316.934814</ele>
        <time>2020-09-04T11:43:22Z</time>
      </trkpt>
      <trkpt lat="44.10406" lon="7.19763">
        <ele>2314.38916</ele>
        <time>2020-09-04T11:43:46Z</time>
      </trkpt>
      <trkpt lat="44.10397" lon="7.19748">
        <ele>2311.85083</ele>
        <time>2020-09-04T11:44:15Z</time>
      </trkpt>
      <trkpt lat="44.10386" lon="7.19737">
        <ele>2310.385498</ele>
        <time>2020-09-04T11:44:32Z</time>
      </trkpt>
      <trkpt lat="44.10376" lon="7.19724">
        <ele>2308.532471</ele>
        <time>2020-09-04T11:44:50Z</time>
      </trkpt>
      <trkpt lat="44.10364" lon="7.19702">
        <ele>2305.484863</ele>
        <time>2020-09-04T11:45:05Z</time>
      </trkpt>
      <trkpt lat="44.10358" lon="7.19676">
        <ele>2302.506104</ele>
        <time>2020-09-04T11:45:21Z</time>
      </trkpt>
      <trkpt lat="44.1035" lon="7.19644">
        <ele>2294.615967</ele>
        <time>2020-09-04T11:45:37Z</time>
      </trkpt>
      <trkpt lat="44.10337" lon="7.19629">
        <ele>2286.744629</ele>
        <time>2020-09-04T11:45:53Z</time>
      </trkpt>
      <trkpt lat="44.10324" lon="7.19621">
        <ele>2283.081055</ele>
        <time>2020-09-04T11:48:42Z</time>
      </trkpt>
      <trkpt lat="44.10311" lon="7.19612">
        <ele>2279.778809</ele>
        <time>2020-09-04T11:48:57Z</time>
      </trkpt>
      <trkpt lat="44.103" lon="7.19601">
        <ele>2275.813721</ele>
        <time>2020-09-04T11:49:15Z</time>
      </trkpt>
      <trkpt lat="44.10291" lon="7.19587">
        <ele>2270.097412</ele>
        <time>2020-09-04T11:49:32Z</time>
      </trkpt>
      <trkpt lat="44.10295" lon="7.19568">
        <ele>2263.463379</ele>
        <time>2020-09-04T11:49:51Z</time>
      </trkpt>
      <trkpt lat="44.10294" lon="7.19549">
        <ele>2255.878418</ele>
        <time>2020-09-04T11:50:13Z</time>
      </trkpt>
      <trkpt lat="44.10291" lon="7.19526">
        <ele>2246.584717</ele>
        <time>2020-09-04T11:50:28Z</time>
      </trkpt>
      <trkpt lat="44.10285" lon="7.19505">
        <ele>2237.717041</ele>
        <time>2020-09-04T11:50:44Z</time>
      </trkpt>
      <trkpt lat="44.10278" lon="7.19488">
        <ele>2230.870605</ele>
        <time>2020-09-04T11:51:11Z</time>
      </trkpt>
      <trkpt lat="44.10287" lon="7.19473">
        <ele>2226.650879</ele>
        <time>2020-09-04T11:51:31Z</time>
      </trkpt>
      <trkpt lat="44.10283" lon="7.19454">
        <ele>2219.399414</ele>
        <time>2020-09-04T11:51:49Z</time>
      </trkpt>
      <trkpt lat="44.10282" lon="7.19434">
        <ele>2212.231934</ele>
        <time>2020-09-04T11:52:05Z</time>
      </trkpt>
      <trkpt lat="44.10268" lon="7.1943">
        <ele>2207.520264</ele>
        <time>2020-09-04T11:52:23Z</time>
      </trkpt>
      <trkpt lat="44.10253" lon="7.1943">
        <ele>2204.199951</ele>
        <time>2020-09-04T11:52:38Z</time>
      </trkpt>
      <trkpt lat="44.10239" lon="7.19427">
        <ele>2201.294434</ele>
        <time>2020-09-04T11:52:55Z</time>
      </trkpt>
      <trkpt lat="44.10241" lon="7.19406">
        <ele>2193.274414</ele>
        <time>2020-09-04T11:53:28Z</time>
      </trkpt>
      <trkpt lat="44.10238" lon="7.19387">
        <ele>2186.241943</ele>
        <time>2020-09-04T11:53:58Z</time>
      </trkpt>
      <trkpt lat="44.10235" lon="7.19368">
        <ele>2178.994385</ele>
        <time>2020-09-04T11:54:40Z</time>
      </trkpt>
      <trkpt lat="44.10229" lon="7.19351">
        <ele>2172.038574</ele>
        <time>2020-09-04T11:55:00Z</time>
      </trkpt>
      <trkpt lat="44.10233" lon="7.19333">
        <ele>2165.789551</ele>
        <time>2020-09-04T11:55:20Z</time>
      </trkpt>
      <trkpt lat="44.10228" lon="7.1931">
        <ele>2160.351074</ele>
        <time>2020-09-04T11:55:36Z</time>
      </trkpt>
      <trkpt lat="44.10224" lon="7.19288">
        <ele>2154.936768</ele>
        <time>2020-09-04T11:55:52Z</time>
      </trkpt>
      <trkpt lat="44.10219" lon="7.19264">
        <ele>2149.021484</ele>
        <time>2020-09-04T11:56:07Z</time>
      </trkpt>
      <trkpt lat="44.10211" lon="7.19244">
        <ele>2144.197266</ele>
        <time>2020-09-04T11:56:23Z</time>
      </trkpt>
      <trkpt lat="44.10206" lon="7.19226">
        <ele>2140.951416</ele>
        <time>2020-09-04T11:56:38Z</time>
      </trkpt>
      <trkpt lat="44.10202" lon="7.19208">
        <ele>2137.888672</ele>
        <time>2020-09-04T11:56:59Z</time>
      </trkpt>
      <trkpt lat="44.10192" lon="7.1919">
        <ele>2134.779053</ele>
        <time>2020-09-04T11:57:14Z</time>
      </trkpt>
      <trkpt lat="44.10181" lon="7.19171">
        <ele>2131.85083</ele>
        <time>2020-09-04T11:57:29Z</time>
      </trkpt>
      <trkpt lat="44.10167" lon="7.19147">
        <ele>2128.853271</ele>
        <time>2020-09-04T11:57:45Z</time>
      </trkpt>
      <trkpt lat="44.1016" lon="7.19126">
        <ele>2126.408203</ele>
        <time>2020-09-04T11:58:01Z</time>
      </trkpt>
      <trkpt lat="44.10152" lon="7.19103">
        <ele>2123.654297</ele>
        <time>2020-09-04T11:58:17Z</time>
      </trkpt>
      <trkpt lat="44.10139" lon="7.19084">
        <ele>2121.083008</ele>
        <time>2020-09-04T11:58:33Z</time>
      </trkpt>
      <trkpt lat="44.1013" lon="7.19065">
        <ele>2118.924561</ele>
        <time>2020-09-04T11:58:48Z</time>
      </trkpt>
      <trkpt lat="44.1012" lon="7.19045">
        <ele>2116.227295</ele>
        <time>2020-09-04T11:59:04Z</time>
      </trkpt>
      <trkpt lat="44.10109" lon="7.19025">
        <ele>2113.043945</ele>
        <time>2020-09-04T11:59:20Z</time>
      </trkpt>
      <trkpt lat="44.10099" lon="7.19012">
        <ele>2110.419434</ele>
        <time>2020-09-04T12:00:04Z</time>
      </trkpt>
      <trkpt lat="44.1009" lon="7.18996">
        <ele>2106.952637</ele>
        <time>2020-09-04T12:00:52Z</time>
      </trkpt>
      <trkpt lat="44.10087" lon="7.18977">
        <ele>2102.868164</ele>
        <time>2020-09-04T12:01:22Z</time>
      </trkpt>
      <trkpt lat="44.10085" lon="7.18957">
        <ele>2098.510986</ele>
        <time>2020-09-04T12:02:47Z</time>
      </trkpt>
      <trkpt lat="44.10074" lon="7.18942">
        <ele>2094.147461</ele>
        <time>2020-09-04T12:03:02Z</time>
      </trkpt>
      <trkpt lat="44.10061" lon="7.18934">
        <ele>2091.354736</ele>
        <time>2020-09-04T12:03:18Z</time>
      </trkpt>
      <trkpt lat="44.10049" lon="7.18924">
        <ele>2088.466064</ele>
        <time>2020-09-04T12:03:34Z</time>
      </trkpt>
      <trkpt lat="44.10036" lon="7.1893">
        <ele>2088.331299</ele>
        <time>2020-09-04T12:04:32Z</time>
      </trkpt>
      <trkpt lat="44.10022" lon="7.1893">
        <ele>2086.914062</ele>
        <time>2020-09-04T12:04:57Z</time>
      </trkpt>
      <trkpt lat="44.10002" lon="7.18929">
        <ele>2084.906982</ele>
        <time>2020-09-04T12:05:13Z</time>
      </trkpt>
      <trkpt lat="44.09985" lon="7.1893">
        <ele>2082.8125</ele>
        <time>2020-09-04T12:05:28Z</time>
      </trkpt>
      <trkpt lat="44.0997" lon="7.1894">
        <ele>2082.334473</ele>
        <time>2020-09-04T12:05:43Z</time>
      </trkpt>
      <trkpt lat="44.09953" lon="7.18945">
        <ele>2080.806641</ele>
        <time>2020-09-04T12:05:59Z</time>
      </trkpt>
      <trkpt lat="44.09939" lon="7.18945">
        <ele>2078.969727</ele>
        <time>2020-09-04T12:12:03Z</time>
      </trkpt>
      <trkpt lat="44.09952" lon="7.1895">
        <ele>2081.611328</ele>
        <time>2020-09-04T12:15:20Z</time>
      </trkpt>
      <trkpt lat="44.09938" lon="7.18952">
        <ele>2080.083496</ele>
        <time>2020-09-04T12:16:01Z</time>
      </trkpt>
      <trkpt lat="44.09921" lon="7.18955">
        <ele>2078.501465</ele>
        <time>2020-09-04T12:16:16Z</time>
      </trkpt>
      <trkpt lat="44.09898" lon="7.1894">
        <ele>2070.973877</ele>
        <time>2020-09-04T12:16:32Z</time>
      </trkpt>
      <trkpt lat="44.09884" lon="7.18923">
        <ele>2064.107422</ele>
        <time>2020-09-04T12:16:47Z</time>
      </trkpt>
      <trkpt lat="44.09871" lon="7.18912">
        <ele>2058.928711</ele>
        <time>2020-09-04T12:17:02Z</time>
      </trkpt>
      <trkpt lat="44.09854" lon="7.18911">
        <ele>2054.461426</ele>
        <time>2020-09-04T12:17:17Z</time>
      </trkpt>
      <trkpt lat="44.09838" lon="7.18893">
        <ele>2048.821289</ele>
        <time>2020-09-04T12:17:33Z</time>
      </trkpt>
      <trkpt lat="44.09826" lon="7.18876">
        <ele>2043.098633</ele>
        <time>2020-09-04T12:17:49Z</time>
      </trkpt>
      <trkpt lat="44.09811" lon="7.18875">
        <ele>2036.844971</ele>
        <time>2020-09-04T12:18:04Z</time>
      </trkpt>
      <trkpt lat="44.09806" lon="7.18858">
        <ele>2032.982178</ele>
        <time>2020-09-04T12:18:23Z</time>
      </trkpt>
      <trkpt lat="44.09805" lon="7.18831">
        <ele>2029.866211</ele>
        <time>2020-09-04T12:18:39Z</time>
      </trkpt>
      <trkpt lat="44.09813" lon="7.18806">
        <ele>2030.123047</ele>
        <time>2020-09-04T12:18:54Z</time>
      </trkpt>
      <trkpt lat="44.09819" lon="7.18777">
        <ele>2028.775635</ele>
        <time>2020-09-04T12:19:09Z</time>
      </trkpt>
      <trkpt lat="44.09827" lon="7.18748">
        <ele>2028.625</ele>
        <time>2020-09-04T12:19:25Z</time>
      </trkpt>
      <trkpt lat="44.09838" lon="7.18726">
        <ele>2032.372559</ele>
        <time>2020-09-04T12:19:40Z</time>
      </trkpt>
      <trkpt lat="44.09862" lon="7.18727">
        <ele>2036.759766</ele>
        <time>2020-09-04T12:19:55Z</time>
      </trkpt>
      <trkpt lat="44.09874" lon="7.18711">
        <ele>2039.989746</ele>
        <time>2020-09-04T12:20:10Z</time>
      </trkpt>
      <trkpt lat="44.09864" lon="7.1868">
        <ele>2039.441895</ele>
        <time>2020-09-04T12:20:26Z</time>
      </trkpt>
      <trkpt lat="44.09854" lon="7.1866">
        <ele>2039.187134</ele>
        <time>2020-09-04T12:20:41Z</time>
      </trkpt>
    </trkseg>
  </trk>
</gpx>